Time;durP1;ratioP1;P1;durP2;ratioP2;P2;SDS_P1;SDS_P2;PMS_P1;PMS_P2;Temp;Humidity;BMP_temperature;BMP_pressure;BME280_temperature;BME280_humidity;BME280_pressure;Samples;Min_cycle;Max_cycle;Signal;HPM_P1;HPM_P2
2022/10/05 00:01:41;;;;;;;4.83;3.10;;;;;;;;;;1690853;84;21057;-65
2022/10/05 00:04:14;;;;;;;4.12;3.20;;;;;;;;;;1748268;81;21028;-64
2022/10/05 00:06:41;;;;;;;5.42;3.22;;;;;;;;;;1757647;81;21096;-65
2022/10/05 00:09:15;;;;;;;4.58;3.30;;;;;;;;;;1754995;80;21022;-65
2022/10/05 00:11:42;;;;;;;3.75;3.00;;;;;;;;;;1752574;81;21038;-65
2022/10/05 00:14:10;;;;;;;4.55;2.92;;;;;;;;;;1750145;81;21053;-65
2022/10/05 00:16:36;;;;;;;4.30;2.85;;;;;;;;;;1752431;81;21134;-65
2022/10/05 00:19:05;;;;;;;4.28;3.10;;;;;;;;;;1757639;80;21041;-65
2022/10/05 00:21:31;;;;;;;5.33;3.25;;;;;;;;;;1754484;81;21033;-65
2022/10/05 00:23:57;;;;;;;6.70;2.90;;;;;;;;;;1727303;81;21535;-65
2022/10/05 00:26:24;;;;;;;5.05;3.00;;;;;;;;;;1740018;81;21048;-65
2022/10/05 00:28:51;;;;;;;4.03;2.87;;;;;;;;;;1755660;81;21033;-65
2022/10/05 00:31:18;;;;;;;5.15;2.85;;;;;;;;;;1751424;81;21019;-65
2022/10/05 00:33:45;;;;;;;5.87;3.50;;;;;;;;;;1755227;81;21008;-66
2022/10/05 00:36:11;;;;;;;3.95;3.00;;;;;;;;;;1746111;81;21061;-64
2022/10/05 00:38:38;;;;;;;4.03;2.92;;;;;;;;;;1752094;81;21070;-64
2022/10/05 00:41:18;;;;;;;7.30;3.37;;;;;;;;;;1752759;81;21106;-65
2022/10/05 00:43:52;;;;;;;5.83;3.58;;;;;;;;;;1751760;81;21093;-65
2022/10/05 00:46:38;;;;;;;4.47;3.17;;;;;;;;;;1754043;81;21064;-65
2022/10/05 00:49:09;;;;;;;8.03;3.00;;;;;;;;;;1754308;80;21140;-65
2022/10/05 00:51:36;;;;;;;4.53;2.87;;;;;;;;;;1762564;80;20999;-65
2022/10/05 00:54:21;;;;;;;4.12;2.87;;;;;;;;;;1756297;80;21002;-66
2022/10/05 00:57:06;;;;;;;4.70;3.00;;;;;;;;;;1759804;80;21592;-67
2022/10/05 00:59:40;;;;;;;4.25;3.08;;;;;;;;;;1755997;80;21048;-66
2022/10/05 01:05:00;;;;;;;5.40;3.33;;;;;;;;;;1719646;79;74652;-75
2022/10/05 01:07:37;;;;;;;6.12;3.20;;;;;;;;;;1709524;82;21030;-75
2022/10/05 01:10:06;;;;;;;5.55;3.10;;;;;;;;;;1709662;83;21037;-76
2022/10/05 01:12:40;;;;;;;4.72;3.25;;;;;;;;;;1699649;83;21052;-76
2022/10/05 01:15:12;;;;;;;5.00;3.10;;;;;;;;;;1722335;83;21099;-76
2022/10/05 01:17:56;;;;;;;4.80;2.92;;;;;;;;;;1724554;82;21019;-77
2022/10/05 01:20:25;;;;;;;3.62;2.67;;;;;;;;;;1696144;83;21067;-78
2022/10/05 01:22:56;;;;;;;4.65;2.80;;;;;;;;;;1710411;83;21529;-77
2022/10/05 01:25:24;;;;;;;3.58;2.98;;;;;;;;;;1718470;82;21071;-75
2022/10/05 01:27:57;;;;;;;3.70;2.83;;;;;;;;;;1707489;83;21056;-75
2022/10/05 01:30:23;;;;;;;6.20;2.62;;;;;;;;;;1696367;83;21559;-76
2022/10/05 01:33:00;;;;;;;4.58;2.72;;;;;;;;;;1716199;82;21024;-76
2022/10/05 01:35:41;;;;;;;4.17;2.60;;;;;;;;;;1702117;83;21068;-76
2022/10/05 01:38:15;;;;;;;4.80;2.80;;;;;;;;;;1706225;83;21079;-76
2022/10/05 01:40:55;;;;;;;4.25;2.67;;;;;;;;;;1700081;83;21108;-75
2022/10/05 01:43:23;;;;;;;6.22;2.90;;;;;;;;;;1703395;83;21040;-75
2022/10/05 01:45:52;;;;;;;3.72;2.87;;;;;;;;;;1710585;83;21024;-76
2022/10/05 01:48:38;;;;;;;6.03;2.92;;;;;;;;;;1684979;83;21059;-76
2022/10/05 01:51:07;;;;;;;3.50;2.85;;;;;;;;;;1717626;83;21087;-75
2022/10/05 01:53:35;;;;;;;4.45;2.72;;;;;;;;;;1702830;83;21052;-75
2022/10/05 01:56:03;;;;;;;3.75;2.55;;;;;;;;;;1712801;83;21032;-75
2022/10/05 01:58:48;;;;;;;3.37;2.90;;;;;;;;;;1709735;82;21046;-74
2022/10/05 02:01:28;;;;;;;6.92;2.95;;;;;;;;;;1707436;83;21012;-75
2022/10/05 02:03:56;;;;;;;3.40;2.80;;;;;;;;;;1725633;81;21077;-74
2022/10/05 02:06:23;;;;;;;4.87;3.05;;;;;;;;;;1735158;81;20993;-74
2022/10/05 02:08:54;;;;;;;5.35;3.12;;;;;;;;;;1743599;81;21053;-74
2022/10/05 02:11:20;;;;;;;5.35;3.12;;;;;;;;;;1739979;81;20970;-75
2022/10/05 02:14:02;;;;;;;4.55;2.65;;;;;;;;;;1738204;81;21016;-75
2022/10/05 02:16:40;;;;;;;4.45;2.85;;;;;;;;;;1732005;81;21003;-75
2022/10/05 02:19:17;;;;;;;3.85;2.65;;;;;;;;;;1745334;81;21496;-75
2022/10/05 02:21:44;;;;;;;3.80;2.40;;;;;;;;;;1737800;81;21096;-75
2022/10/05 02:24:14;;;;;;;3.85;2.85;;;;;;;;;;1737200;80;21017;-75
2022/10/05 02:26:40;;;;;;;5.15;3.05;;;;;;;;;;1746280;81;20985;-74
2022/10/05 02:29:09;;;;;;;3.75;2.70;;;;;;;;;;1737719;81;21559;-75
2022/10/05 02:31:39;;;;;;;5.65;2.85;;;;;;;;;;1744625;81;21087;-75
2022/10/05 02:34:19;;;;;;;3.25;2.77;;;;;;;;;;1743021;81;21033;-75
2022/10/05 02:36:46;;;;;;;3.37;2.70;;;;;;;;;;1712735;81;21365;-75
2022/10/05 02:39:15;;;;;;;3.67;2.80;;;;;;;;;;1751219;81;21492;-74
2022/10/05 02:41:49;;;;;;;3.83;2.65;;;;;;;;;;1737787;81;21048;-75
2022/10/05 02:44:26;;;;;;;3.65;2.70;;;;;;;;;;1744028;81;21516;-75
2022/10/05 02:46:57;;;;;;;4.05;2.50;;;;;;;;;;1747031;81;21072;-76
2022/10/05 02:49:29;;;;;;;4.25;3.05;;;;;;;;;;1744202;81;21072;-75
2022/10/05 02:52:07;;;;;;;4.92;2.83;;;;;;;;;;1745837;81;21548;-75
2022/10/05 02:54:42;;;;;;;3.25;2.67;;;;;;;;;;1745050;81;21276;-75
2022/10/05 02:57:13;;;;;;;6.12;2.80;;;;;;;;;;1737881;81;21049;-74
2022/10/05 03:02:33;;;;;;;4.58;2.60;;;;;;;;;;1801530;79;22793;-65
2022/10/05 03:05:01;;;;;;;5.30;2.70;;;;;;;;;;1761072;80;21560;-64
2022/10/05 03:07:30;;;;;;;4.87;2.87;;;;;;;;;;1760227;81;21547;-64
2022/10/05 03:09:58;;;;;;;4.47;2.67;;;;;;;;;;1745337;81;21020;-65
2022/10/05 03:12:45;;;;;;;3.85;2.70;;;;;;;;;;1756891;81;21048;-63
2022/10/05 03:15:20;;;;;;;4.87;2.60;;;;;;;;;;1760354;80;21005;-64
2022/10/05 03:17:49;;;;;;;3.65;2.72;;;;;;;;;;1756503;80;21067;-64
2022/10/05 03:20:23;;;;;;;3.30;2.72;;;;;;;;;;1760907;81;20959;-64
2022/10/05 03:22:50;;;;;;;4.20;2.95;;;;;;;;;;1758447;81;21521;-64
2022/10/05 03:25:21;;;;;;;4.80;2.80;;;;;;;;;;1759638;81;21034;-64
2022/10/05 03:27:51;;;;;;;4.00;2.80;;;;;;;;;;1758000;81;21026;-64
2022/10/05 03:30:20;;;;;;;7.72;2.90;;;;;;;;;;1761432;81;21091;-65
2022/10/05 03:32:55;;;;;;;5.65;2.87;;;;;;;;;;1760725;81;21024;-64
2022/10/05 03:35:40;;;;;;;3.95;3.00;;;;;;;;;;1760518;81;21034;-63
2022/10/05 03:38:26;;;;;;;4.40;2.90;;;;;;;;;;1757199;81;21005;-64
2022/10/05 03:40:59;;;;;;;4.55;3.00;;;;;;;;;;1759305;81;21017;-65
2022/10/05 03:43:45;;;;;;;4.80;3.25;;;;;;;;;;1757952;81;21056;-64
2022/10/05 03:46:17;;;;;;;4.62;2.80;;;;;;;;;;1759077;80;21008;-63
2022/10/05 03:48:49;;;;;;;4.40;2.80;;;;;;;;;;1757378;81;21051;-64
2022/10/05 03:51:23;;;;;;;5.75;2.98;;;;;;;;;;1761203;81;21061;-63
2022/10/05 03:53:52;;;;;;;3.85;2.52;;;;;;;;;;1761139;81;20946;-63
2022/10/05 03:56:20;;;;;;;3.72;2.90;;;;;;;;;;1760274;80;21027;-63
2022/10/05 03:58:52;;;;;;;3.92;2.58;;;;;;;;;;1761420;81;21004;-63
2022/10/05 04:01:19;;;;;;;5.47;3.10;;;;;;;;;;1746963;81;22011;-65
2022/10/05 04:03:47;;;;;;;5.50;2.72;;;;;;;;;;1738001;81;20975;-65
2022/10/05 04:06:15;;;;;;;4.35;2.67;;;;;;;;;;1735212;81;20994;-64
2022/10/05 04:08:43;;;;;;;4.85;2.40;;;;;;;;;;1741684;82;21523;-65
2022/10/05 04:11:11;;;;;;;4.08;2.58;;;;;;;;;;1739894;82;21547;-64
2022/10/05 04:13:47;;;;;;;3.27;2.58;;;;;;;;;;1742756;82;21031;-65
2022/10/05 04:16:32;;;;;;;3.60;2.67;;;;;;;;;;1737975;81;21067;-66
2022/10/05 04:19:00;;;;;;;3.10;2.30;;;;;;;;;;1736358;81;21557;-66
2022/10/05 04:21:29;;;;;;;4.80;2.85;;;;;;;;;;1740931;81;21048;-65
2022/10/05 04:23:59;;;;;;;5.17;3.30;;;;;;;;;;1735935;82;21553;-65
2022/10/05 04:26:37;;;;;;;3.42;2.37;;;;;;;;;;1734585;81;21049;-66
2022/10/05 04:29:05;;;;;;;4.85;2.75;;;;;;;;;;1732307;81;21044;-66
2022/10/05 04:31:37;;;;;;;4.30;2.83;;;;;;;;;;1741145;81;21012;-68
2022/10/05 04:34:05;;;;;;;4.12;3.02;;;;;;;;;;1730217;81;21535;-65
2022/10/05 04:36:33;;;;;;;5.60;4.22;;;;;;;;;;1736989;82;21504;-65
2022/10/05 04:39:08;;;;;;;5.53;2.90;;;;;;;;;;1711095;83;21053;-65
2022/10/05 04:41:38;;;;;;;3.87;3.08;;;;;;;;;;1737241;82;21091;-64
2022/10/05 04:44:12;;;;;;;5.03;2.87;;;;;;;;;;1731204;82;20959;-65
2022/10/05 04:46:50;;;;;;;6.28;4.20;;;;;;;;;;1697507;84;21095;-65
2022/10/05 04:49:24;;;;;;;6.65;4.72;;;;;;;;;;1701022;83;21033;-65
2022/10/05 04:51:53;;;;;;;6.87;4.00;;;;;;;;;;1703654;84;21118;-65
2022/10/05 04:54:38;;;;;;;7.78;3.08;;;;;;;;;;1705087;83;21105;-65
2022/10/05 04:57:09;;;;;;;4.33;3.20;;;;;;;;;;1679854;85;21007;-64
2022/10/05 04:59:39;;;;;;;4.83;2.95;;;;;;;;;;1680255;85;21072;-64
2022/10/05 05:02:19;;;;;;;3.95;2.85;;;;;;;;;;1672476;85;22018;-65
2022/10/05 05:05:02;;;;;;;4.17;2.92;;;;;;;;;;1731255;81;21044;-65
2022/10/05 05:07:30;;;;;;;3.90;3.10;;;;;;;;;;1734392;81;21046;-65
2022/10/05 05:10:01;;;;;;;6.08;3.33;;;;;;;;;;1728864;81;21095;-64
2022/10/05 05:12:37;;;;;;;5.40;3.37;;;;;;;;;;1733890;81;21067;-65
2022/10/05 05:15:22;;;;;;;6.00;3.20;;;;;;;;;;1738820;82;21306;-63
2022/10/05 05:17:55;;;;;;;4.50;2.80;;;;;;;;;;1720276;82;21121;-63
2022/10/05 05:20:23;;;;;;;4.58;3.20;;;;;;;;;;1738782;81;21050;-63
2022/10/05 05:22:54;;;;;;;3.25;2.42;;;;;;;;;;1733573;81;20979;-64
2022/10/05 05:25:26;;;;;;;3.17;2.62;;;;;;;;;;1739457;81;20997;-64
2022/10/05 05:27:53;;;;;;;5.20;2.98;;;;;;;;;;1740096;82;21054;-64
2022/10/05 05:30:23;;;;;;;4.72;3.00;;;;;;;;;;1739648;82;21038;-63
2022/10/05 05:32:54;;;;;;;4.17;3.20;;;;;;;;;;1736330;81;21087;-64
2022/10/05 05:35:22;;;;;;;6.67;3.22;;;;;;;;;;1736295;81;21048;-64
2022/10/05 05:38:02;;;;;;;6.20;2.90;;;;;;;;;;1738001;81;21010;-64
2022/10/05 05:40:37;;;;;;;4.45;3.25;;;;;;;;;;1732983;82;21074;-63
2022/10/05 05:43:23;;;;;;;3.90;2.83;;;;;;;;;;1673394;82;20992;-64
2022/10/05 05:45:54;;;;;;;8.33;3.08;;;;;;;;;;1735386;81;20985;-64
2022/10/05 05:48:23;;;;;;;4.87;2.90;;;;;;;;;;1734623;82;21039;-65
2022/10/05 05:50:55;;;;;;;6.15;3.37;;;;;;;;;;1736634;81;21056;-64
2022/10/05 05:53:26;;;;;;;3.85;2.83;;;;;;;;;;1738117;82;21020;-64
2022/10/05 05:56:07;;;;;;;5.42;3.02;;;;;;;;;;1740695;82;21099;-64
2022/10/05 05:58:42;;;;;;;5.00;3.47;;;;;;;;;;1734120;82;21814;-63
2022/10/05 06:01:10;;;;;;;6.67;4.55;;;;;;;;;;1729314;80;21087;-63
2022/10/05 06:03:51;;;;;;;6.85;4.60;;;;;;;;;;1739168;82;21537;-63
2022/10/05 06:06:18;;;;;;;4.08;2.77;;;;;;;;;;1722752;81;21082;-64
2022/10/05 06:08:53;;;;;;;4.35;2.95;;;;;;;;;;1732518;82;21846;-63
2022/10/05 06:11:32;;;;;;;4.85;3.00;;;;;;;;;;1727455;81;21008;-64
2022/10/05 06:14:00;;;;;;;4.45;2.72;;;;;;;;;;1741939;82;20965;-64
2022/10/05 06:16:45;;;;;;;4.53;2.72;;;;;;;;;;1719239;83;20998;-63
2022/10/05 06:19:18;;;;;;;4.15;2.60;;;;;;;;;;1743148;81;21039;-64
2022/10/05 06:22:00;;;;;;;5.60;2.85;;;;;;;;;;1741934;81;21028;-63
2022/10/05 06:24:28;;;;;;;4.42;2.65;;;;;;;;;;1739617;81;21047;-65
2022/10/05 06:27:14;;;;;;;4.53;2.77;;;;;;;;;;1737062;82;21051;-65
2022/10/05 06:29:48;;;;;;;4.78;2.70;;;;;;;;;;1737125;81;21071;-64
2022/10/05 06:32:16;;;;;;;3.75;2.40;;;;;;;;;;1700945;83;22242;-65
2022/10/05 06:34:45;;;;;;;4.42;2.37;;;;;;;;;;1700469;83;21598;-64
2022/10/05 06:37:13;;;;;;;3.58;2.75;;;;;;;;;;1665185;85;21532;-65
2022/10/05 06:39:42;;;;;;;5.90;2.62;;;;;;;;;;1676969;85;21578;-65
2022/10/05 06:42:20;;;;;;;4.08;2.42;;;;;;;;;;1676189;85;22165;-65
2022/10/05 06:45:07;;;;;;;4.25;2.75;;;;;;;;;;1632766;84;20978;-64
2022/10/05 06:47:52;;;;;;;4.50;2.70;;;;;;;;;;1677849;85;21053;-64
2022/10/05 06:50:42;;;;;;;3.62;2.70;;;;;;;;;;1671415;85;21077;-64
2022/10/05 06:53:21;;;;;;;3.95;2.30;;;;;;;;;;1636560;85;21028;-64
2022/10/05 06:55:50;;;;;;;4.92;2.60;;;;;;;;;;1691368;84;21584;-64
2022/10/05 06:58:35;;;;;;;4.62;2.50;;;;;;;;;;1682915;84;21062;-64
2022/10/05 07:01:04;;;;;;;4.30;2.42;;;;;;;;;;1677430;84;21586;-65
2022/10/05 07:03:49;;;;;;;3.27;2.40;;;;;;;;;;1672135;85;21676;-64
2022/10/05 07:06:19;;;;;;;4.37;2.27;;;;;;;;;;1676113;85;21103;-64
2022/10/05 07:08:55;;;;;;;3.77;2.15;;;;;;;;;;1678055;85;20974;-65
2022/10/05 07:11:39;;;;;;;5.67;2.50;;;;;;;;;;1676929;85;21024;-64
2022/10/05 07:14:17;;;;;;;3.33;2.20;;;;;;;;;;1674614;85;21068;-64
2022/10/05 07:16:45;;;;;;;5.75;2.50;;;;;;;;;;1677753;85;21046;-64
2022/10/05 07:19:16;;;;;;;3.83;2.70;;;;;;;;;;1675355;85;20973;-65
2022/10/05 07:21:48;;;;;;;4.47;2.70;;;;;;;;;;1676454;85;21075;-65
2022/10/05 07:24:28;;;;;;;3.47;2.65;;;;;;;;;;1675824;85;21121;-65
2022/10/05 07:27:08;;;;;;;3.65;2.40;;;;;;;;;;1679048;85;21053;-67
2022/10/05 07:29:37;;;;;;;5.53;2.50;;;;;;;;;;1674057;84;21048;-67
2022/10/05 07:32:08;;;;;;;2.98;2.22;;;;;;;;;;1674686;85;21040;-64
2022/10/05 07:34:37;;;;;;;4.95;2.52;;;;;;;;;;1671881;85;21634;-64
2022/10/05 07:39:58;;;;;;;4.40;2.50;;;;;;;;;;1675779;85;21064;-64
2022/10/05 07:42:32;;;;;;;4.45;2.30;;;;;;;;;;1677297;85;21053;-65
2022/10/05 07:45:01;;;;;;;3.52;2.80;;;;;;;;;;1678805;85;21144;-66
2022/10/05 07:47:34;;;;;;;3.15;2.27;;;;;;;;;;1664986;85;21080;-65
2022/10/05 07:50:02;;;;;;;2.30;2.10;;;;;;;;;;1674252;85;21080;-65
2022/10/05 07:52:31;;;;;;;4.25;2.22;;;;;;;;;;1674525;85;21013;-67
2022/10/05 07:55:17;;;;;;;2.62;2.10;;;;;;;;;;1673054;85;21068;-66
2022/10/05 07:57:45;;;;;;;4.00;2.20;;;;;;;;;;1676514;85;21017;-66
2022/10/05 08:00:13;;;;;;;3.17;2.30;;;;;;;;;;1677491;84;21069;-64
2022/10/05 08:02:43;;;;;;;3.50;2.20;;;;;;;;;;1670592;85;21002;-65
2022/10/05 08:05:11;;;;;;;3.27;2.27;;;;;;;;;;1661760;86;21088;-64
2022/10/05 08:07:38;;;;;;;3.58;2.20;;;;;;;;;;1648056;86;21053;-64
2022/10/05 08:10:15;;;;;;;4.25;2.12;;;;;;;;;;1712538;82;21042;-65
2022/10/05 08:13:00;;;;;;;3.77;2.55;;;;;;;;;;1731281;82;21042;-64
2022/10/05 08:15:29;;;;;;;4.55;2.40;;;;;;;;;;1733005;82;21099;-65
2022/10/05 08:18:01;;;;;;;4.53;2.20;;;;;;;;;;1723086;82;21013;-65
2022/10/05 08:20:30;;;;;;;2.72;2.00;;;;;;;;;;1736020;82;21048;-65
2022/10/05 08:22:58;;;;;;;4.55;2.47;;;;;;;;;;1742094;82;21005;-65
2022/10/05 08:25:25;;;;;;;3.30;2.40;;;;;;;;;;1740341;82;21056;-65
2022/10/05 08:27:53;;;;;;;3.98;2.47;;;;;;;;;;1737432;82;21048;-65
2022/10/05 08:30:19;;;;;;;3.37;2.30;;;;;;;;;;1737493;82;21653;-66
2022/10/05 08:32:56;;;;;;;4.95;1.87;;;;;;;;;;1743488;82;21045;-65
2022/10/05 08:35:29;;;;;;;2.55;1.87;;;;;;;;;;1739601;82;21127;-65
2022/10/05 08:37:56;;;;;;;2.42;2.00;;;;;;;;;;1735906;82;21099;-66
2022/10/05 08:40:26;;;;;;;2.75;1.92;;;;;;;;;;1735739;82;21783;-65
2022/10/05 08:43:01;;;;;;;3.52;2.30;;;;;;;;;;1732024;82;21052;-65
2022/10/05 08:45:29;;;;;;;3.27;1.95;;;;;;;;;;1739287;82;21040;-65
2022/10/05 08:48:00;;;;;;;4.78;2.30;;;;;;;;;;1731387;82;21099;-66
2022/10/05 08:50:28;;;;;;;3.37;2.30;;;;;;;;;;1729215;82;21056;-65
2022/10/05 08:53:12;;;;;;;6.22;2.35;;;;;;;;;;1732727;82;21093;-65
2022/10/05 08:55:40;;;;;;;3.87;2.17;;;;;;;;;;1733730;82;22139;-64
2022/10/05 08:58:25;;;;;;;3.85;2.33;;;;;;;;;;1738837;82;21001;-64
2022/10/05 09:01:05;;;;;;;2.62;2.20;;;;;;;;;;1737755;80;21071;-65
2022/10/05 09:03:37;;;;;;;4.33;2.60;;;;;;;;;;1737856;81;21064;-65
2022/10/05 09:06:09;;;;;;;3.50;2.47;;;;;;;;;;1742014;81;21020;-66
2022/10/05 09:08:40;;;;;;;3.20;2.20;;;;;;;;;;1735674;81;21058;-65
2022/10/05 09:11:11;;;;;;;3.75;2.00;;;;;;;;;;1739930;81;22116;-65
2022/10/05 09:13:59;;;;;;;2.52;1.90;;;;;;;;;;1736521;82;21020;-65
2022/10/05 09:16:32;;;;;;;3.55;2.10;;;;;;;;;;1735136;81;21309;-66
2022/10/05 09:19:13;;;;;;;4.83;2.22;;;;;;;;;;1738504;81;21119;-65
2022/10/05 09:21:40;;;;;;;5.22;2.17;;;;;;;;;;1743586;81;21009;-66
2022/10/05 09:24:25;;;;;;;2.95;1.87;;;;;;;;;;1749494;81;21578;-66
2022/10/05 09:27:00;;;;;;;2.37;1.90;;;;;;;;;;1692666;83;21036;-65
2022/10/05 09:29:45;;;;;;;6.67;2.30;;;;;;;;;;1658146;85;21005;-65
2022/10/05 09:32:16;;;;;;;4.22;2.30;;;;;;;;;;1727672;82;20995;-65
2022/10/05 09:34:47;;;;;;;3.02;1.90;;;;;;;;;;1733475;82;21567;-64
2022/10/05 09:37:19;;;;;;;4.40;1.95;;;;;;;;;;1731274;81;21018;-64
2022/10/05 09:40:02;;;;;;;3.22;2.02;;;;;;;;;;1730599;81;21021;-64
2022/10/05 09:42:33;;;;;;;4.25;2.02;;;;;;;;;;1737970;81;21213;-65
2022/10/05 09:45:18;;;;;;;3.60;2.10;;;;;;;;;;1737390;82;21058;-65
2022/10/05 09:47:52;;;;;;;3.52;2.05;;;;;;;;;;1743162;82;21030;-65
2022/10/05 09:50:40;;;;;;;4.95;2.50;;;;;;;;;;1737001;82;22064;-65
2022/10/05 09:53:08;;;;;;;3.05;2.00;;;;;;;;;;1737582;82;21052;-65
2022/10/05 09:55:52;;;;;;;5.62;2.17;;;;;;;;;;1736529;82;21027;-65
2022/10/05 09:58:37;;;;;;;2.30;1.82;;;;;;;;;;1734636;82;21097;-65
2022/10/05 10:01:10;;;;;;;2.62;1.87;;;;;;;;;;1736423;81;21107;-65
2022/10/05 10:03:53;;;;;;;2.40;1.90;;;;;;;;;;1736440;82;21061;-65
2022/10/05 10:06:21;;;;;;;2.67;1.90;;;;;;;;;;1724035;82;21496;-65
2022/10/05 10:09:08;;;;;;;5.62;2.22;;;;;;;;;;1745237;81;21645;-65
2022/10/05 10:11:37;;;;;;;3.25;2.25;;;;;;;;;;1741203;81;20992;-65
2022/10/05 10:14:21;;;;;;;3.83;2.42;;;;;;;;;;1741599;81;21047;-65
2022/10/05 10:16:48;;;;;;;;;;;;;;;;;;1744057;82;21083;-65
2022/10/05 10:19:25;;;;;;;4.40;2.40;;;;;;;;;;1741846;81;20122;-64
2022/10/05 10:22:06;;;;;;;3.25;2.10;;;;;;;;;;1734557;81;21053;-63
2022/10/05 10:24:43;;;;;;;4.95;2.25;;;;;;;;;;1736386;81;21034;-65
2022/10/05 10:27:15;;;;;;;2.90;2.05;;;;;;;;;;1739619;82;21568;-65
2022/10/05 10:29:44;;;;;;;3.75;2.20;;;;;;;;;;1750952;81;21054;-66
2022/10/05 10:32:24;;;;;;;3.50;2.25;;;;;;;;;;1701553;84;20969;-65
2022/10/05 10:34:53;;;;;;;4.37;2.17;;;;;;;;;;1676065;85;21037;-64
2022/10/05 10:37:30;;;;;;;5.28;2.50;;;;;;;;;;1658495;85;21025;-65
2022/10/05 10:40:04;;;;;;;2.80;2.02;;;;;;;;;;1675654;85;21141;-64
2022/10/05 10:42:38;;;;;;;2.90;1.95;;;;;;;;;;1703576;83;21531;-65
2022/10/05 10:45:06;;;;;;;3.47;2.00;;;;;;;;;;1706106;83;21056;-64
2022/10/05 10:47:34;;;;;;;3.62;1.90;;;;;;;;;;1702527;83;21013;-65
2022/10/05 10:50:03;;;;;;;3.95;2.20;;;;;;;;;;1703418;84;21086;-65
2022/10/05 10:52:41;;;;;;;4.62;2.00;;;;;;;;;;1702640;83;21024;-65
2022/10/05 10:55:11;;;;;;;1.82;1.72;;;;;;;;;;1703827;84;21578;-66
2022/10/05 10:57:46;;;;;;;2.80;1.82;;;;;;;;;;1701897;83;21099;-65
2022/10/05 11:00:18;;;;;;;3.67;1.82;;;;;;;;;;1673575;84;21069;-66
2022/10/05 11:02:46;;;;;;;2.72;1.80;;;;;;;;;;1679842;84;21086;-66
2022/10/05 11:05:23;;;;;;;2.77;1.80;;;;;;;;;;1667901;84;21058;-66
2022/10/05 11:08:08;;;;;;;3.05;1.90;;;;;;;;;;1674337;84;21033;-66
2022/10/05 11:10:54;;;;;;;4.67;1.87;;;;;;;;;;1671674;85;21084;-66
2022/10/05 11:13:28;;;;;;;2.15;1.90;;;;;;;;;;1667331;85;21037;-66
2022/10/05 11:15:56;;;;;;;3.00;2.05;;;;;;;;;;1726000;82;21054;-66
2022/10/05 11:18:41;;;;;;;3.45;2.10;;;;;;;;;;1729721;82;21543;-66
2022/10/05 11:21:18;;;;;;;4.53;2.22;;;;;;;;;;1730685;82;21123;-66
2022/10/05 11:23:53;;;;;;;2.50;1.95;;;;;;;;;;1728855;82;21051;-66
2022/10/05 11:26:33;;;;;;;3.47;2.08;;;;;;;;;;1727841;82;21027;-66
2022/10/05 11:29:07;;;;;;;3.00;2.10;;;;;;;;;;1727641;82;21546;-67
2022/10/05 11:31:53;;;;;;;3.40;2.10;;;;;;;;;;1721071;82;21029;-67
2022/10/05 11:34:36;;;;;;;3.72;2.02;;;;;;;;;;1727912;82;21050;-66
2022/10/05 11:37:21;;;;;;;2.55;1.85;;;;;;;;;;1727448;82;21469;-66
2022/10/05 11:40:01;;;;;;;3.15;1.95;;;;;;;;;;1729274;82;21066;-66
2022/10/05 11:42:48;;;;;;;2.85;1.90;;;;;;;;;;1727505;82;21082;-66
2022/10/05 11:45:31;;;;;;;3.35;2.17;;;;;;;;;;1718630;82;21035;-65
2022/10/05 11:48:14;;;;;;;4.28;2.12;;;;;;;;;;1727360;82;21023;-66
2022/10/05 11:50:44;;;;;;;2.85;1.90;;;;;;;;;;1726286;82;21052;-65
2022/10/05 11:53:30;;;;;;;3.87;1.80;;;;;;;;;;1728847;82;21030;-65
2022/10/05 11:56:04;;;;;;;2.65;2.02;;;;;;;;;;1730678;82;21076;-66
2022/10/05 11:58:33;;;;;;;2.15;1.90;;;;;;;;;;1731868;82;21037;-67
2022/10/05 12:01:01;;;;;;;2.62;1.98;;;;;;;;;;1719668;82;21068;-65
2022/10/05 12:03:35;;;;;;;3.12;2.30;;;;;;;;;;1732875;82;21532;-65
2022/10/05 12:06:07;;;;;;;2.83;2.00;;;;;;;;;;1736365;81;21060;-67
2022/10/05 12:08:38;;;;;;;6.90;5.03;;;;;;;;;;1739730;81;21119;-65
2022/10/05 12:11:22;;;;;;;3.30;2.52;;;;;;;;;;1747067;82;21037;-64
2022/10/05 12:13:50;;;;;;;3.70;2.37;;;;;;;;;;1729703;82;21416;-65
2022/10/05 12:16:21;;;;;;;3.05;2.25;;;;;;;;;;1734609;81;21025;-64
2022/10/05 12:18:58;;;;;;;3.05;2.20;;;;;;;;;;1731519;82;21087;-65
2022/10/05 12:21:32;;;;;;;2.35;2.00;;;;;;;;;;1733774;82;21005;-65
2022/10/05 12:24:03;;;;;;;3.33;1.80;;;;;;;;;;1736678;81;21924;-65
2022/10/05 12:26:34;;;;;;;2.42;1.85;;;;;;;;;;1736990;81;21044;-66
2022/10/05 12:29:18;;;;;;;3.80;2.20;;;;;;;;;;1730120;82;21056;-65
2022/10/05 12:31:58;;;;;;;3.05;2.25;;;;;;;;;;1732923;82;21594;-65
2022/10/05 12:34:26;;;;;;;2.50;2.00;;;;;;;;;;1735867;81;21033;-65
2022/10/05 12:36:54;;;;;;;2.47;1.80;;;;;;;;;;1731394;82;21962;-67
2022/10/05 12:39:24;;;;;;;4.03;2.02;;;;;;;;;;1737086;82;21510;-65
2022/10/05 12:41:56;;;;;;;2.65;1.90;;;;;;;;;;1734610;82;21083;-65
2022/10/05 12:44:24;;;;;;;2.37;1.98;;;;;;;;;;1736475;81;21022;-66
2022/10/05 12:46:52;;;;;;;2.45;1.80;;;;;;;;;;1736375;81;21070;-67
2022/10/05 12:49:23;;;;;;;2.05;1.77;;;;;;;;;;1740222;81;20969;-67
2022/10/05 12:51:58;;;;;;;4.35;2.10;;;;;;;;;;1735492;81;22079;-67
2022/10/05 12:54:29;;;;;;;2.10;1.70;;;;;;;;;;1740753;81;21095;-67
2022/10/05 12:56:57;;;;;;;4.85;2.00;;;;;;;;;;1732342;82;21028;-68
2022/10/05 12:59:31;;;;;;;3.15;2.10;;;;;;;;;;1737243;81;21028;-68
2022/10/05 13:02:16;;;;;;;2.85;2.00;;;;;;;;;;1731517;81;21040;-67
2022/10/05 13:04:50;;;;;;;3.02;1.80;;;;;;;;;;1736401;82;21584;-68
2022/10/05 13:07:24;;;;;;;2.40;1.70;;;;;;;;;;1720669;82;20957;-68
2022/10/05 13:09:55;;;;;;;4.20;1.92;;;;;;;;;;1726670;82;21160;-68
2022/10/05 13:12:24;;;;;;;2.47;1.72;;;;;;;;;;1721012;82;21100;-68
2022/10/05 13:14:58;;;;;;;1.95;1.50;;;;;;;;;;1722845;82;21059;-67
2022/10/05 13:17:27;;;;;;;2.60;1.90;;;;;;;;;;1729182;82;21090;-66
2022/10/05 13:20:01;;;;;;;3.58;1.90;;;;;;;;;;1734969;82;20979;-67
2022/10/05 13:22:28;;;;;;;2.45;1.70;;;;;;;;;;1731704;82;21089;-67
2022/10/05 13:25:06;;;;;;;3.80;2.12;;;;;;;;;;1731833;82;21575;-67
2022/10/05 13:27:36;;;;;;;3.15;2.37;;;;;;;;;;1733921;82;21040;-68
2022/10/05 13:30:15;;;;;;;4.75;2.50;;;;;;;;;;1733633;82;21019;-67
2022/10/05 13:32:47;;;;;;;3.95;2.00;;;;;;;;;;1732670;82;21017;-66
2022/10/05 13:35:33;;;;;;;2.75;1.80;;;;;;;;;;1673449;82;21041;-66
2022/10/05 13:38:06;;;;;;;3.55;1.90;;;;;;;;;;1733782;82;20993;-66
2022/10/05 13:40:36;;;;;;;2.98;2.10;;;;;;;;;;1732297;82;21112;-68
2022/10/05 13:43:10;;;;;;;2.70;1.95;;;;;;;;;;1699951;82;21112;-68
2022/10/05 13:45:39;;;;;;;3.70;2.08;;;;;;;;;;1733466;82;21021;-67
2022/10/05 13:48:10;;;;;;;3.12;2.20;;;;;;;;;;1733111;82;21065;-67
2022/10/05 13:50:38;;;;;;;2.98;2.08;;;;;;;;;;1722001;82;21032;-67
2022/10/05 13:53:12;;;;;;;3.02;1.92;;;;;;;;;;1731123;82;21029;-68
2022/10/05 13:55:43;;;;;;;3.25;1.98;;;;;;;;;;1725377;82;21095;-68
2022/10/05 13:58:11;;;;;;;2.22;1.70;;;;;;;;;;1728278;82;21004;-66
2022/10/05 14:00:49;;;;;;;3.37;2.10;;;;;;;;;;1650461;82;21149;-67
2022/10/05 14:03:31;;;;;;;2.58;1.90;;;;;;;;;;1640731;84;21068;-67
2022/10/05 14:05:58;;;;;;;3.80;2.05;;;;;;;;;;1700016;83;21040;-68
2022/10/05 14:08:27;;;;;;;4.15;2.27;;;;;;;;;;1697632;83;20968;-69
2022/10/05 14:10:54;;;;;;;2.72;2.00;;;;;;;;;;1675019;85;21006;-68
2022/10/05 14:13:25;;;;;;;4.28;2.10;;;;;;;;;;1735210;81;21583;-67
2022/10/05 14:16:00;;;;;;;4.67;2.40;;;;;;;;;;1738909;82;21095;-67
2022/10/05 14:18:27;;;;;;;4.30;2.37;;;;;;;;;;1738605;81;21012;-72
2022/10/05 14:20:58;;;;;;;4.45;2.58;;;;;;;;;;1739772;81;21607;-71
2022/10/05 14:23:25;;;;;;;6.17;2.67;;;;;;;;;;1730679;81;21065;-72
2022/10/05 14:25:52;;;;;;;4.45;2.60;;;;;;;;;;1731751;82;21022;-67
2022/10/05 14:28:31;;;;;;;4.03;2.12;;;;;;;;;;1737924;82;21500;-66
2022/10/05 14:30:59;;;;;;;4.17;2.40;;;;;;;;;;1734309;81;21030;-65
2022/10/05 14:33:33;;;;;;;5.03;2.60;;;;;;;;;;1731688;82;21677;-65
2022/10/05 14:35:59;;;;;;;3.52;2.45;;;;;;;;;;1736084;82;21008;-65
2022/10/05 14:38:30;;;;;;;5.72;2.80;;;;;;;;;;1735450;82;21050;-67
2022/10/05 14:41:04;;;;;;;4.78;2.17;;;;;;;;;;1728195;82;21058;-66
2022/10/05 14:43:32;;;;;;;4.10;2.42;;;;;;;;;;1727996;82;21079;-67
2022/10/05 14:46:01;;;;;;;3.75;2.12;;;;;;;;;;1745288;82;21008;-67
2022/10/05 14:48:28;;;;;;;5.47;2.45;;;;;;;;;;1726234;81;21080;-66
2022/10/05 14:50:58;;;;;;;4.25;2.20;;;;;;;;;;1736308;82;21606;-66
2022/10/05 14:53:26;;;;;;;5.08;2.83;;;;;;;;;;1740963;82;21531;-64
2022/10/05 14:56:03;;;;;;;4.22;2.00;;;;;;;;;;1730437;81;21037;-65
2022/10/05 14:58:40;;;;;;;5.45;2.62;;;;;;;;;;1735780;81;21017;-65
2022/10/05 15:01:14;;;;;;;3.52;2.22;;;;;;;;;;1727991;82;21123;-66
2022/10/05 15:03:45;;;;;;;4.05;2.62;;;;;;;;;;1733031;82;21047;-66
2022/10/05 15:06:15;;;;;;;3.60;2.50;;;;;;;;;;1725299;82;21059;-66
2022/10/05 15:08:50;;;;;;;4.55;2.50;;;;;;;;;;1728415;82;21514;-66
2022/10/05 15:11:19;;;;;;;3.58;2.22;;;;;;;;;;1730327;82;21104;-67
2022/10/05 15:13:50;;;;;;;4.80;2.83;;;;;;;;;;1730414;82;21051;-65
2022/10/05 15:16:30;;;;;;;4.05;2.20;;;;;;;;;;1711019;82;21517;-66
2022/10/05 15:19:53;;;;;;;4.40;2.50;;;;;;;;;;1803828;78;22829;-65
2022/10/05 15:22:30;;;;;;;7.33;3.72;;;;;;;;;;1762499;80;21540;-66
2022/10/05 15:25:16;;;;;;;7.97;3.75;;;;;;;;;;1757727;81;21005;-67
2022/10/05 15:27:46;;;;;;;6.87;4.47;;;;;;;;;;1765312;80;21052;-67
2022/10/05 15:30:16;;;;;;;7.33;4.67;;;;;;;;;;1737119;80;21031;-66